sensor_id;sensor_type;location;lat;lon;timestamp;temperature;humidity
17639;DHT22;8938;53.546;9.954;2023-04-10T00:00:29;11.60;99.90
17639;DHT22;8938;53.546;9.954;2023-04-10T00:02:58;11.60;99.90
17639;DHT22;8938;53.546;9.954;2023-04-10T00:05:24;11.50;99.90
17639;DHT22;8938;53.546;9.954;2023-04-10T00:07:49;11.50;99.90
17639;DHT22;8938;53.546;9.954;2023-04-10T00:10:15;11.50;99.90
17639;DHT22;8938;53.546;9.954;2023-04-10T00:12:41;11.40;99.90
17639;DHT22;8938;53.546;9.954;2023-04-10T00:15:07;11.40;99.90
17639;DHT22;8938;53.546;9.954;2023-04-10T00:17:32;11.40;99.90
17639;DHT22;8938;53.546;9.954;2023-04-10T00:19:58;11.40;99.90
17639;DHT22;8938;53.546;9.954;2023-04-10T00:22:24;11.40;99.90
17639;DHT22;8938;53.546;9.954;2023-04-10T00:24:50;11.40;99.90
17639;DHT22;8938;53.546;9.954;2023-04-10T00:27:15;11.40;99.90
17639;DHT22;8938;53.546;9.954;2023-04-10T00:29:41;11.50;99.90
17639;DHT22;8938;53.546;9.954;2023-04-10T00:32:06;11.60;99.90
17639;DHT22;8938;53.546;9.954;2023-04-10T00:34:32;11.70;99.90
17639;DHT22;8938;53.546;9.954;2023-04-10T00:36:58;11.70;99.90
17639;DHT22;8938;53.546;9.954;2023-04-10T00:39:23;11.70;99.90
17639;DHT22;8938;53.546;9.954;2023-04-10T00:41:49;11.60;99.90
17639;DHT22;8938;53.546;9.954;2023-04-10T00:44:14;11.50;99.90
17639;DHT22;8938;53.546;9.954;2023-04-10T00:46:40;11.60;99.90
17639;DHT22;8938;53.546;9.954;2023-04-10T00:49:06;11.60;99.90
17639;DHT22;8938;53.546;9.954;2023-04-10T00:51:33;11.50;99.90
17639;DHT22;8938;53.546;9.954;2023-04-10T00:54:00;11.50;99.90
17639;DHT22;8938;53.546;9.954;2023-04-10T00:56:27;11.50;99.90
17639;DHT22;8938;53.546;9.954;2023-04-10T00:58:54;11.50;99.90
17639;DHT22;8938;53.546;9.954;2023-04-10T01:01:19;11.40;99.90
17639;DHT22;8938;53.546;9.954;2023-04-10T01:03:45;11.30;99.90
17639;DHT22;8938;53.546;9.954;2023-04-10T01:14:31;11.20;99.90
17639;DHT22;8938;53.546;9.954;2023-04-10T01:17:26;11.10;99.90
17639;DHT22;8938;53.546;9.954;2023-04-10T01:20:09;11.20;99.90
17639;DHT22;8938;53.546;9.954;2023-04-10T01:25:42;11.30;99.90
17639;DHT22;8938;53.546;9.954;2023-04-10T01:30:46;11.40;99.90
17639;DHT22;8938;53.546;9.954;2023-04-10T01:33:16;11.50;99.90
17639;DHT22;8938;53.546;9.954;2023-04-10T01:35:46;11.50;99.90
17639;DHT22;8938;53.546;9.954;2023-04-10T01:38:15;11.50;99.90
17639;DHT22;8938;53.546;9.954;2023-04-10T01:40:43;11.60;99.90
17639;DHT22;8938;53.546;9.954;2023-04-10T01:43:14;11.50;99.90
17639;DHT22;8938;53.546;9.954;2023-04-10T01:45:41;11.50;99.90
17639;DHT22;8938;53.546;9.954;2023-04-10T01:48:08;11.40;99.90
17639;DHT22;8938;53.546;9.954;2023-04-10T01:50:34;11.30;99.90
17639;DHT22;8938;53.546;9.954;2023-04-10T01:53:02;11.20;99.90
17639;DHT22;8938;53.546;9.954;2023-04-10T01:55:28;11.20;99.90
17639;DHT22;8938;53.546;9.954;2023-04-10T01:57:56;11.40;99.90
17639;DHT22;8938;53.546;9.954;2023-04-10T02:00:22;11.40;99.90
17639;DHT22;8938;53.546;9.954;2023-04-10T02:02:48;11.40;99.90
17639;DHT22;8938;53.546;9.954;2023-04-10T02:05:15;11.40;99.90
17639;DHT22;8938;53.546;9.954;2023-04-10T02:08:06;11.40;99.90
17639;DHT22;8938;53.546;9.954;2023-04-10T02:10:56;11.50;99.90
17639;DHT22;8938;53.546;9.954;2023-04-10T02:13:25;11.60;99.90
17639;DHT22;8938;53.546;9.954;2023-04-10T02:15:54;11.50;99.90
17639;DHT22;8938;53.546;9.954;2023-04-10T02:18:21;11.60;99.90
17639;DHT22;8938;53.546;9.954;2023-04-10T02:20:48;11.50;99.90
17639;DHT22;8938;53.546;9.954;2023-04-10T02:23:18;11.50;99.90
17639;DHT22;8938;53.546;9.954;2023-04-10T02:25:44;11.50;99.90
17639;DHT22;8938;53.546;9.954;2023-04-10T02:28:10;11.50;99.90
17639;DHT22;8938;53.546;9.954;2023-04-10T02:30:36;11.40;99.90
17639;DHT22;8938;53.546;9.954;2023-04-10T02:33:01;11.40;99.90
17639;DHT22;8938;53.546;9.954;2023-04-10T02:35:27;11.40;99.90
17639;DHT22;8938;53.546;9.954;2023-04-10T02:37:53;11.50;99.90
17639;DHT22;8938;53.546;9.954;2023-04-10T02:40:19;11.40;99.90
17639;DHT22;8938;53.546;9.954;2023-04-10T02:42:45;11.50;99.90
17639;DHT22;8938;53.546;9.954;2023-04-10T02:45:10;11.50;99.90
17639;DHT22;8938;53.546;9.954;2023-04-10T02:47:36;11.50;99.90
17639;DHT22;8938;53.546;9.954;2023-04-10T02:50:01;11.50;99.90
17639;DHT22;8938;53.546;9.954;2023-04-10T02:52:27;11.40;99.90
17639;DHT22;8938;53.546;9.954;2023-04-10T02:54:52;11.10;99.90
17639;DHT22;8938;53.546;9.954;2023-04-10T02:57:18;10.90;99.90
17639;DHT22;8938;53.546;9.954;2023-04-10T02:59:43;10.80;99.90
17639;DHT22;8938;53.546;9.954;2023-04-10T03:02:09;10.80;99.90
17639;DHT22;8938;53.546;9.954;2023-04-10T03:04:35;10.70;99.90
17639;DHT22;8938;53.546;9.954;2023-04-10T03:07:01;10.50;99.90
17639;DHT22;8938;53.546;9.954;2023-04-10T03:09:27;10.50;99.90
17639;DHT22;8938;53.546;9.954;2023-04-10T03:11:52;10.50;99.90
17639;DHT22;8938;53.546;9.954;2023-04-10T03:14:18;10.60;99.90
17639;DHT22;8938;53.546;9.954;2023-04-10T03:16:44;10.70;99.90
17639;DHT22;8938;53.546;9.954;2023-04-10T03:19:09;10.70;99.90
17639;DHT22;8938;53.546;9.954;2023-04-10T03:21:36;10.80;99.90
17639;DHT22;8938;53.546;9.954;2023-04-10T03:24:02;10.90;99.90
17639;DHT22;8938;53.546;9.954;2023-04-10T03:26:28;11.00;99.90
17639;DHT22;8938;53.546;9.954;2023-04-10T03:28:53;10.90;99.90
17639;DHT22;8938;53.546;9.954;2023-04-10T03:31:19;11.00;99.90
17639;DHT22;8938;53.546;9.954;2023-04-10T03:33:44;10.90;99.90
17639;DHT22;8938;53.546;9.954;2023-04-10T03:36:10;10.80;99.90
17639;DHT22;8938;53.546;9.954;2023-04-10T03:38:36;10.80;99.90
17639;DHT22;8938;53.546;9.954;2023-04-10T03:41:01;10.80;99.90
17639;DHT22;8938;53.546;9.954;2023-04-10T03:43:28;10.80;99.90
17639;DHT22;8938;53.546;9.954;2023-04-10T03:45:54;10.70;99.90
17639;DHT22;8938;53.546;9.954;2023-04-10T03:48:20;10.60;99.90
17639;DHT22;8938;53.546;9.954;2023-04-10T03:50:45;10.60;99.90
17639;DHT22;8938;53.546;9.954;2023-04-10T03:53:11;10.60;99.90
17639;DHT22;8938;53.546;9.954;2023-04-10T03:55:36;10.70;99.90
17639;DHT22;8938;53.546;9.954;2023-04-10T03:58:03;10.70;99.90
17639;DHT22;8938;53.546;9.954;2023-04-10T04:00:29;10.70;99.90
17639;DHT22;8938;53.546;9.954;2023-04-10T04:02:55;10.80;99.90
17639;DHT22;8938;53.546;9.954;2023-04-10T04:05:20;10.70;99.90
17639;DHT22;8938;53.546;9.954;2023-04-10T04:07:46;10.60;99.90
17639;DHT22;8938;53.546;9.954;2023-04-10T04:10:12;10.40;99.90
17639;DHT22;8938;53.546;9.954;2023-04-10T04:12:37;10.40;99.90
17639;DHT22;8938;53.546;9.954;2023-04-10T04:15:03;10.20;99.90
17639;DHT22;8938;53.546;9.954;2023-04-10T04:17:28;10.10;99.90
17639;DHT22;8938;53.546;9.954;2023-04-10T04:19:54;10.10;99.90
17639;DHT22;8938;53.546;9.954;2023-04-10T04:22:20;10.00;99.90
17639;DHT22;8938;53.546;9.954;2023-04-10T04:24:45;10.00;99.90
17639;DHT22;8938;53.546;9.954;2023-04-10T04:27:11;10.00;99.90
17639;DHT22;8938;53.546;9.954;2023-04-10T04:29:36;10.00;99.90
17639;DHT22;8938;53.546;9.954;2023-04-10T04:32:02;10.00;99.90
17639;DHT22;8938;53.546;9.954;2023-04-10T04:34:28;10.00;99.90
17639;DHT22;8938;53.546;9.954;2023-04-10T04:36:53;9.90;99.90
17639;DHT22;8938;53.546;9.954;2023-04-10T04:39:18;10.00;99.90
17639;DHT22;8938;53.546;9.954;2023-04-10T04:41:46;10.00;99.90
17639;DHT22;8938;53.546;9.954;2023-04-10T04:44:11;10.00;99.90
17639;DHT22;8938;53.546;9.954;2023-04-10T04:46:37;10.00;99.90
17639;DHT22;8938;53.546;9.954;2023-04-10T04:49:02;10.10;99.90
17639;DHT22;8938;53.546;9.954;2023-04-10T04:51:28;10.20;99.90
17639;DHT22;8938;53.546;9.954;2023-04-10T04:53:53;10.20;99.90
17639;DHT22;8938;53.546;9.954;2023-04-10T04:56:18;10.30;99.90
17639;DHT22;8938;53.546;9.954;2023-04-10T04:58:44;10.20;99.90
17639;DHT22;8938;53.546;9.954;2023-04-10T05:01:10;10.10;99.90
17639;DHT22;8938;53.546;9.954;2023-04-10T05:03:35;10.20;99.90
17639;DHT22;8938;53.546;9.954;2023-04-10T05:06:01;10.20;99.90
17639;DHT22;8938;53.546;9.954;2023-04-10T05:08:26;10.20;99.90
17639;DHT22;8938;53.546;9.954;2023-04-10T05:10:52;10.30;99.90
17639;DHT22;8938;53.546;9.954;2023-04-10T05:13:17;10.30;99.90
17639;DHT22;8938;53.546;9.954;2023-04-10T05:15:43;10.30;99.90
17639;DHT22;8938;53.546;9.954;2023-04-10T05:18:09;10.30;99.90
17639;DHT22;8938;53.546;9.954;2023-04-10T05:20:35;10.20;99.90
17639;DHT22;8938;53.546;9.954;2023-04-10T05:23:01;10.20;99.90
17639;DHT22;8938;53.546;9.954;2023-04-10T05:25:27;10.30;99.90
17639;DHT22;8938;53.546;9.954;2023-04-10T05:27:52;10.20;99.90
17639;DHT22;8938;53.546;9.954;2023-04-10T05:30:18;10.20;99.90
17639;DHT22;8938;53.546;9.954;2023-04-10T05:32:43;10.30;99.90
17639;DHT22;8938;53.546;9.954;2023-04-10T05:35:10;10.30;99.90
17639;DHT22;8938;53.546;9.954;2023-04-10T05:37:36;10.50;99.90
17639;DHT22;8938;53.546;9.954;2023-04-10T05:40:01;10.50;99.90
17639;DHT22;8938;53.546;9.954;2023-04-10T05:42:27;10.60;99.90
17639;DHT22;8938;53.546;9.954;2023-04-10T05:44:53;10.70;99.90
17639;DHT22;8938;53.546;9.954;2023-04-10T05:47:18;10.80;99.90
17639;DHT22;8938;53.546;9.954;2023-04-10T05:49:44;10.90;99.90
17639;DHT22;8938;53.546;9.954;2023-04-10T05:52:09;10.80;99.90
17639;DHT22;8938;53.546;9.954;2023-04-10T05:54:35;10.80;99.90
17639;DHT22;8938;53.546;9.954;2023-04-10T05:57:00;10.80;99.90
17639;DHT22;8938;53.546;9.954;2023-04-10T05:59:26;10.80;99.90
17639;DHT22;8938;53.546;9.954;2023-04-10T06:01:52;10.80;99.90
17639;DHT22;8938;53.546;9.954;2023-04-10T06:04:18;10.70;99.90
17639;DHT22;8938;53.546;9.954;2023-04-10T06:06:45;10.80;99.90
17639;DHT22;8938;53.546;9.954;2023-04-10T06:09:12;10.70;99.90
17639;DHT22;8938;53.546;9.954;2023-04-10T06:11:37;10.90;99.90
17639;DHT22;8938;53.546;9.954;2023-04-10T06:14:03;11.00;99.90
17639;DHT22;8938;53.546;9.954;2023-04-10T06:16:28;11.10;99.90
17639;DHT22;8938;53.546;9.954;2023-04-10T06:18:54;11.10;99.90
17639;DHT22;8938;53.546;9.954;2023-04-10T06:21:20;11.10;99.90
17639;DHT22;8938;53.546;9.954;2023-04-10T06:23:46;11.00;99.90
17639;DHT22;8938;53.546;9.954;2023-04-10T06:26:11;11.00;99.90
17639;DHT22;8938;53.546;9.954;2023-04-10T06:28:37;10.90;99.90
17639;DHT22;8938;53.546;9.954;2023-04-10T06:31:04;10.90;99.90
17639;DHT22;8938;53.546;9.954;2023-04-10T06:33:30;10.80;99.90
17639;DHT22;8938;53.546;9.954;2023-04-10T06:35:56;10.80;99.90
17639;DHT22;8938;53.546;9.954;2023-04-10T06:38:21;10.70;99.90
17639;DHT22;8938;53.546;9.954;2023-04-10T06:40:47;10.90;99.90
17639;DHT22;8938;53.546;9.954;2023-04-10T06:43:13;11.00;99.90
17639;DHT22;8938;53.546;9.954;2023-04-10T06:45:38;11.00;99.90
17639;DHT22;8938;53.546;9.954;2023-04-10T06:48:05;10.90;99.90
17639;DHT22;8938;53.546;9.954;2023-04-10T06:50:31;10.90;99.90
17639;DHT22;8938;53.546;9.954;2023-04-10T06:52:56;11.00;99.90
17639;DHT22;8938;53.546;9.954;2023-04-10T06:55:25;11.10;99.90
17639;DHT22;8938;53.546;9.954;2023-04-10T06:57:50;11.10;99.90
17639;DHT22;8938;53.546;9.954;2023-04-10T07:00:17;11.10;99.90
17639;DHT22;8938;53.546;9.954;2023-04-10T07:02:43;11.20;99.90
17639;DHT22;8938;53.546;9.954;2023-04-10T07:05:08;11.20;99.90
17639;DHT22;8938;53.546;9.954;2023-04-10T07:07:34;11.30;99.90
17639;DHT22;8938;53.546;9.954;2023-04-10T07:10:00;11.40;99.90
17639;DHT22;8938;53.546;9.954;2023-04-10T07:12:25;11.40;99.90
17639;DHT22;8938;53.546;9.954;2023-04-10T07:14:51;11.50;99.90
17639;DHT22;8938;53.546;9.954;2023-04-10T07:17:16;11.60;99.90
17639;DHT22;8938;53.546;9.954;2023-04-10T07:19:42;11.70;99.90
17639;DHT22;8938;53.546;9.954;2023-04-10T07:22:07;11.80;99.90
17639;DHT22;8938;53.546;9.954;2023-04-10T07:24:33;11.90;99.90
17639;DHT22;8938;53.546;9.954;2023-04-10T07:26:58;12.10;99.90
17639;DHT22;8938;53.546;9.954;2023-04-10T07:29:25;12.20;99.90
17639;DHT22;8938;53.546;9.954;2023-04-10T07:31:51;12.30;99.90
17639;DHT22;8938;53.546;9.954;2023-04-10T07:34:17;12.20;99.90
17639;DHT22;8938;53.546;9.954;2023-04-10T07:36:43;12.40;99.90
17639;DHT22;8938;53.546;9.954;2023-04-10T07:39:08;12.60;99.90
17639;DHT22;8938;53.546;9.954;2023-04-10T07:41:34;12.80;99.90
17639;DHT22;8938;53.546;9.954;2023-04-10T07:44:00;13.00;99.90
17639;DHT22;8938;53.546;9.954;2023-04-10T07:46:26;13.10;99.90
17639;DHT22;8938;53.546;9.954;2023-04-10T07:48:52;13.20;99.90
17639;DHT22;8938;53.546;9.954;2023-04-10T07:51:19;13.30;99.90
17639;DHT22;8938;53.546;9.954;2023-04-10T07:53:45;13.30;99.90
17639;DHT22;8938;53.546;9.954;2023-04-10T07:56:17;13.40;99.90
17639;DHT22;8938;53.546;9.954;2023-04-10T07:58:43;13.60;99.90
17639;DHT22;8938;53.546;9.954;2023-04-10T08:01:09;13.70;99.90
17639;DHT22;8938;53.546;9.954;2023-04-10T08:03:42;13.80;99.90
17639;DHT22;8938;53.546;9.954;2023-04-10T08:06:09;14.00;99.90
17639;DHT22;8938;53.546;9.954;2023-04-10T08:08:39;14.20;99.90
17639;DHT22;8938;53.546;9.954;2023-04-10T08:11:34;14.30;99.90
17639;DHT22;8938;53.546;9.954;2023-04-10T08:14:01;14.60;99.90
17639;DHT22;8938;53.546;9.954;2023-04-10T08:16:29;14.70;99.90
17639;DHT22;8938;53.546;9.954;2023-04-10T08:18:56;14.90;99.90
17639;DHT22;8938;53.546;9.954;2023-04-10T08:21:23;15.00;99.90
17639;DHT22;8938;53.546;9.954;2023-04-10T08:23:53;15.10;99.90
17639;DHT22;8938;53.546;9.954;2023-04-10T08:26:19;15.30;99.90
17639;DHT22;8938;53.546;9.954;2023-04-10T08:28:50;15.40;99.90
17639;DHT22;8938;53.546;9.954;2023-04-10T08:31:17;15.70;99.90
17639;DHT22;8938;53.546;9.954;2023-04-10T08:33:42;15.80;99.90
17639;DHT22;8938;53.546;9.954;2023-04-10T08:36:09;15.90;99.90
17639;DHT22;8938;53.546;9.954;2023-04-10T08:38:34;15.90;99.90
17639;DHT22;8938;53.546;9.954;2023-04-10T08:41:00;16.10;99.90
17639;DHT22;8938;53.546;9.954;2023-04-10T08:43:25;16.10;99.90
17639;DHT22;8938;53.546;9.954;2023-04-10T08:45:52;16.20;99.90
17639;DHT22;8938;53.546;9.954;2023-04-10T08:48:18;16.30;99.90
17639;DHT22;8938;53.546;9.954;2023-04-10T08:50:45;16.40;99.90
17639;DHT22;8938;53.546;9.954;2023-04-10T08:53:13;16.40;99.90
17639;DHT22;8938;53.546;9.954;2023-04-10T08:55:40;16.50;99.90
17639;DHT22;8938;53.546;9.954;2023-04-10T08:58:06;16.50;99.90
17639;DHT22;8938;53.546;9.954;2023-04-10T09:00:33;16.60;99.90
17639;DHT22;8938;53.546;9.954;2023-04-10T09:03:03;16.60;99.80
17639;DHT22;8938;53.546;9.954;2023-04-10T09:05:29;16.80;99.90
17639;DHT22;8938;53.546;9.954;2023-04-10T09:07:55;17.00;99.80
17639;DHT22;8938;53.546;9.954;2023-04-10T09:10:21;17.20;99.50
17639;DHT22;8938;53.546;9.954;2023-04-10T09:12:47;17.30;99.50
17639;DHT22;8938;53.546;9.954;2023-04-10T09:15:13;17.50;99.10
17639;DHT22;8938;53.546;9.954;2023-04-10T09:18:01;17.60;98.90
17639;DHT22;8938;53.546;9.954;2023-04-10T09:20:31;17.70;98.30
17639;DHT22;8938;53.546;9.954;2023-04-10T09:22:57;17.60;97.30
17639;DHT22;8938;53.546;9.954;2023-04-10T09:28:15;17.30;96.90
17639;DHT22;8938;53.546;9.954;2023-04-10T09:30:41;17.30;96.90
17639;DHT22;8938;53.546;9.954;2023-04-10T09:33:20;17.30;96.70
17639;DHT22;8938;53.546;9.954;2023-04-10T09:35:46;17.40;96.70
17639;DHT22;8938;53.546;9.954;2023-04-10T09:38:16;17.60;96.60
17639;DHT22;8938;53.546;9.954;2023-04-10T09:40:42;19.10;96.30
17639;DHT22;8938;53.546;9.954;2023-04-10T09:43:26;21.10;95.10
17639;DHT22;8938;53.546;9.954;2023-04-10T09:45:54;23.20;91.80
17639;DHT22;8938;53.546;9.954;2023-04-10T09:48:21;24.20;89.50
17639;DHT22;8938;53.546;9.954;2023-04-10T09:50:47;25.40;90.20
17639;DHT22;8938;53.546;9.954;2023-04-10T09:53:15;26.70;88.90
17639;DHT22;8938;53.546;9.954;2023-04-10T09:55:42;27.50;82.90
17639;DHT22;8938;53.546;9.954;2023-04-10T09:58:08;28.00;79.90
17639;DHT22;8938;53.546;9.954;2023-04-10T10:00:44;28.10;76.60
17639;DHT22;8938;53.546;9.954;2023-04-10T10:03:12;28.10;76.20
17639;DHT22;8938;53.546;9.954;2023-04-10T10:05:48;28.10;74.90
17639;DHT22;8938;53.546;9.954;2023-04-10T10:08:14;28.00;73.30
17639;DHT22;8938;53.546;9.954;2023-04-10T10:10:47;27.80;72.10
17639;DHT22;8938;53.546;9.954;2023-04-10T10:13:25;27.10;69.50
17639;DHT22;8938;53.546;9.954;2023-04-10T10:16:03;26.40;69.70
17639;DHT22;8938;53.546;9.954;2023-04-10T10:18:49;25.70;71.30
17639;DHT22;8938;53.546;9.954;2023-04-10T10:21:17;25.90;73.40
17639;DHT22;8938;53.546;9.954;2023-04-10T10:23:45;26.20;72.80
17639;DHT22;8938;53.546;9.954;2023-04-10T10:26:11;26.40;71.60
17639;DHT22;8938;53.546;9.954;2023-04-10T10:28:39;26.50;71.60
17639;DHT22;8938;53.546;9.954;2023-04-10T10:31:06;26.70;69.90
17639;DHT22;8938;53.546;9.954;2023-04-10T10:33:34;26.90;70.30
17639;DHT22;8938;53.546;9.954;2023-04-10T10:36:02;27.00;69.30
17639;DHT22;8938;53.546;9.954;2023-04-10T10:38:29;27.00;68.80
17639;DHT22;8938;53.546;9.954;2023-04-10T10:43:59;26.50;66.60
17639;DHT22;8938;53.546;9.954;2023-04-10T10:46:31;26.00;67.40
17639;DHT22;8938;53.546;9.954;2023-04-10T10:48:58;25.10;67.80
17639;DHT22;8938;53.546;9.954;2023-04-10T10:51:42;24.40;69.10
17639;DHT22;8938;53.546;9.954;2023-04-10T10:54:27;23.60;69.60
17639;DHT22;8938;53.546;9.954;2023-04-10T10:56:53;22.90;70.30
17639;DHT22;8938;53.546;9.954;2023-04-10T11:02:18;21.80;71.20
17639;DHT22;8938;53.546;9.954;2023-04-10T11:04:47;21.50;71.20
17639;DHT22;8938;53.546;9.954;2023-04-10T11:07:14;21.10;70.00
17639;DHT22;8938;53.546;9.954;2023-04-10T11:09:51;21.10;71.30
17639;DHT22;8938;53.546;9.954;2023-04-10T11:12:23;21.00;71.70
17639;DHT22;8938;53.546;9.954;2023-04-10T11:15:00;20.90;72.00
17639;DHT22;8938;53.546;9.954;2023-04-10T11:17:45;20.80;72.30
17639;DHT22;8938;53.546;9.954;2023-04-10T11:20:10;20.70;72.00
17639;DHT22;8938;53.546;9.954;2023-04-10T11:23:14;20.80;72.60
17639;DHT22;8938;53.546;9.954;2023-04-10T11:25:53;20.90;72.40
17639;DHT22;8938;53.546;9.954;2023-04-10T11:31:12;20.90;71.60
17639;DHT22;8938;53.546;9.954;2023-04-10T11:33:39;21.00;71.80
17639;DHT22;8938;53.546;9.954;2023-04-10T11:36:05;21.10;71.30
17639;DHT22;8938;53.546;9.954;2023-04-10T11:38:32;21.10;70.90
17639;DHT22;8938;53.546;9.954;2023-04-10T11:41:00;21.20;70.30
17639;DHT22;8938;53.546;9.954;2023-04-10T11:43:29;21.20;70.10
17639;DHT22;8938;53.546;9.954;2023-04-10T11:45:59;21.20;70.10
17639;DHT22;8938;53.546;9.954;2023-04-10T11:48:26;21.20;69.20
17639;DHT22;8938;53.546;9.954;2023-04-10T11:50:52;21.30;69.40
17639;DHT22;8938;53.546;9.954;2023-04-10T11:53:19;21.30;68.80
17639;DHT22;8938;53.546;9.954;2023-04-10T11:55:46;21.40;68.20
17639;DHT22;8938;53.546;9.954;2023-04-10T11:58:25;21.50;68.30
17639;DHT22;8938;53.546;9.954;2023-04-10T12:01:02;21.60;68.70
17639;DHT22;8938;53.546;9.954;2023-04-10T12:03:42;21.60;68.40
17639;DHT22;8938;53.546;9.954;2023-04-10T12:06:10;21.70;68.80
17639;DHT22;8938;53.546;9.954;2023-04-10T12:08:41;21.90;68.50
17639;DHT22;8938;53.546;9.954;2023-04-10T12:11:10;22.00;68.50
17639;DHT22;8938;53.546;9.954;2023-04-10T12:13:36;22.00;68.40
17639;DHT22;8938;53.546;9.954;2023-04-10T12:16:09;22.00;68.80
17639;DHT22;8938;53.546;9.954;2023-04-10T12:18:35;22.10;68.70
17639;DHT22;8938;53.546;9.954;2023-04-10T12:21:02;22.10;68.20
17639;DHT22;8938;53.546;9.954;2023-04-10T12:23:29;22.10;68.40
17639;DHT22;8938;53.546;9.954;2023-04-10T12:26:13;22.00;67.90
17639;DHT22;8938;53.546;9.954;2023-04-10T12:28:41;22.00;68.00
17639;DHT22;8938;53.546;9.954;2023-04-10T12:31:07;22.00;68.00
17639;DHT22;8938;53.546;9.954;2023-04-10T12:33:33;22.00;67.70
17639;DHT22;8938;53.546;9.954;2023-04-10T12:35:59;22.10;67.50
17639;DHT22;8938;53.546;9.954;2023-04-10T12:38:42;22.00;67.30
17639;DHT22;8938;53.546;9.954;2023-04-10T12:41:10;22.00;67.70
17639;DHT22;8938;53.546;9.954;2023-04-10T12:43:37;22.10;67.60
17639;DHT22;8938;53.546;9.954;2023-04-10T12:46:04;22.10;67.10
17639;DHT22;8938;53.546;9.954;2023-04-10T12:48:30;22.10;66.30
17639;DHT22;8938;53.546;9.954;2023-04-10T12:50:55;22.10;66.10
17639;DHT22;8938;53.546;9.954;2023-04-10T12:53:21;22.10;65.90
17639;DHT22;8938;53.546;9.954;2023-04-10T12:56:03;22.20;65.80
17639;DHT22;8938;53.546;9.954;2023-04-10T12:58:29;22.20;66.00
17639;DHT22;8938;53.546;9.954;2023-04-10T13:01:04;22.20;64.90
17639;DHT22;8938;53.546;9.954;2023-04-10T13:03:32;22.10;65.30
17639;DHT22;8938;53.546;9.954;2023-04-10T13:05:58;22.10;64.60
17639;DHT22;8938;53.546;9.954;2023-04-10T13:08:23;22.00;65.30
17639;DHT22;8938;53.546;9.954;2023-04-10T13:10:49;22.10;65.70
17639;DHT22;8938;53.546;9.954;2023-04-10T13:13:15;22.10;64.80
17639;DHT22;8938;53.546;9.954;2023-04-10T13:15:40;22.00;65.10
17639;DHT22;8938;53.546;9.954;2023-04-10T13:18:06;22.00;65.50
17639;DHT22;8938;53.546;9.954;2023-04-10T13:20:39;22.00;65.60
17639;DHT22;8938;53.546;9.954;2023-04-10T13:23:06;22.00;66.00
17639;DHT22;8938;53.546;9.954;2023-04-10T13:25:33;22.00;64.90
17639;DHT22;8938;53.546;9.954;2023-04-10T13:28:01;21.90;64.90
17639;DHT22;8938;53.546;9.954;2023-04-10T13:30:28;21.80;65.20
17639;DHT22;8938;53.546;9.954;2023-04-10T13:32:53;21.80;65.70
17639;DHT22;8938;53.546;9.954;2023-04-10T13:35:19;21.70;65.50
17639;DHT22;8938;53.546;9.954;2023-04-10T13:37:46;21.70;65.90
17639;DHT22;8938;53.546;9.954;2023-04-10T13:40:11;21.80;66.00
17639;DHT22;8938;53.546;9.954;2023-04-10T13:42:37;21.70;65.20
17639;DHT22;8938;53.546;9.954;2023-04-10T13:45:03;21.70;64.90
17639;DHT22;8938;53.546;9.954;2023-04-10T13:47:28;21.50;65.30
17639;DHT22;8938;53.546;9.954;2023-04-10T13:49:54;21.40;65.80
17639;DHT22;8938;53.546;9.954;2023-04-10T13:52:19;21.50;65.80
17639;DHT22;8938;53.546;9.954;2023-04-10T13:54:45;21.40;65.70
17639;DHT22;8938;53.546;9.954;2023-04-10T13:57:10;21.40;66.70
17639;DHT22;8938;53.546;9.954;2023-04-10T13:59:36;21.40;66.20
17639;DHT22;8938;53.546;9.954;2023-04-10T14:02:01;21.40;66.30
17639;DHT22;8938;53.546;9.954;2023-04-10T14:04:27;21.50;66.30
17639;DHT22;8938;53.546;9.954;2023-04-10T14:06:52;21.60;66.30
17639;DHT22;8938;53.546;9.954;2023-04-10T14:09:22;21.60;66.50
17639;DHT22;8938;53.546;9.954;2023-04-10T14:11:47;21.60;66.40
17639;DHT22;8938;53.546;9.954;2023-04-10T14:14:13;21.70;66.40
17639;DHT22;8938;53.546;9.954;2023-04-10T14:16:38;21.70;66.50
17639;DHT22;8938;53.546;9.954;2023-04-10T14:19:04;21.70;66.60
17639;DHT22;8938;53.546;9.954;2023-04-10T14:21:29;21.70;66.60
17639;DHT22;8938;53.546;9.954;2023-04-10T14:23:56;21.70;66.60
17639;DHT22;8938;53.546;9.954;2023-04-10T14:26:21;21.60;66.80
17639;DHT22;8938;53.546;9.954;2023-04-10T14:28:47;21.60;67.10
17639;DHT22;8938;53.546;9.954;2023-04-10T14:31:13;21.60;67.40
17639;DHT22;8938;53.546;9.954;2023-04-10T14:33:38;21.60;68.00
17639;DHT22;8938;53.546;9.954;2023-04-10T14:36:04;21.60;68.40
17639;DHT22;8938;53.546;9.954;2023-04-10T14:38:30;21.70;68.10
17639;DHT22;8938;53.546;9.954;2023-04-10T14:40:56;21.70;68.40
17639;DHT22;8938;53.546;9.954;2023-04-10T14:43:21;21.70;68.70
17639;DHT22;8938;53.546;9.954;2023-04-10T14:45:47;21.70;68.70
17639;DHT22;8938;53.546;9.954;2023-04-10T14:48:12;21.80;68.70
17639;DHT22;8938;53.546;9.954;2023-04-10T14:50:38;21.80;68.60
17639;DHT22;8938;53.546;9.954;2023-04-10T14:53:03;21.80;68.80
17639;DHT22;8938;53.546;9.954;2023-04-10T14:55:30;21.80;68.90
17639;DHT22;8938;53.546;9.954;2023-04-10T14:57:56;21.90;68.80
17639;DHT22;8938;53.546;9.954;2023-04-10T15:00:22;21.80;69.20
17639;DHT22;8938;53.546;9.954;2023-04-10T15:02:49;21.70;68.90
17639;DHT22;8938;53.546;9.954;2023-04-10T15:05:15;21.60;69.10
17639;DHT22;8938;53.546;9.954;2023-04-10T15:07:41;21.50;69.60
17639;DHT22;8938;53.546;9.954;2023-04-10T15:10:06;21.40;69.90
17639;DHT22;8938;53.546;9.954;2023-04-10T15:12:34;21.40;70.20
17639;DHT22;8938;53.546;9.954;2023-04-10T15:15:00;21.50;70.40
17639;DHT22;8938;53.546;9.954;2023-04-10T15:17:26;21.40;70.50
17639;DHT22;8938;53.546;9.954;2023-04-10T15:19:51;21.50;70.60
17639;DHT22;8938;53.546;9.954;2023-04-10T15:22:17;21.50;70.40
17639;DHT22;8938;53.546;9.954;2023-04-10T15:24:42;21.50;70.70
17639;DHT22;8938;53.546;9.954;2023-04-10T15:27:08;21.40;70.80
17639;DHT22;8938;53.546;9.954;2023-04-10T15:29:37;21.40;70.80
17639;DHT22;8938;53.546;9.954;2023-04-10T15:32:03;21.50;71.10
17639;DHT22;8938;53.546;9.954;2023-04-10T15:34:29;21.50;70.70
17639;DHT22;8938;53.546;9.954;2023-04-10T15:36:54;21.50;70.00
17639;DHT22;8938;53.546;9.954;2023-04-10T15:39:20;21.40;69.20
17639;DHT22;8938;53.546;9.954;2023-04-10T15:41:45;21.50;69.30
17639;DHT22;8938;53.546;9.954;2023-04-10T15:44:14;21.50;69.30
17639;DHT22;8938;53.546;9.954;2023-04-10T15:46:40;21.50;69.60
17639;DHT22;8938;53.546;9.954;2023-04-10T15:49:05;21.60;69.50
17639;DHT22;8938;53.546;9.954;2023-04-10T15:51:31;21.60;68.80
17639;DHT22;8938;53.546;9.954;2023-04-10T15:53:56;21.60;68.30
17639;DHT22;8938;53.546;9.954;2023-04-10T15:56:22;21.60;68.30
17639;DHT22;8938;53.546;9.954;2023-04-10T15:58:47;21.60;68.20
17639;DHT22;8938;53.546;9.954;2023-04-10T16:01:13;21.60;68.40
17639;DHT22;8938;53.546;9.954;2023-04-10T16:03:38;21.50;68.40
17639;DHT22;8938;53.546;9.954;2023-04-10T16:06:04;21.40;68.50
17639;DHT22;8938;53.546;9.954;2023-04-10T16:08:30;21.40;68.70
17639;DHT22;8938;53.546;9.954;2023-04-10T16:10:56;21.30;68.80